Date,TemperatureHighF,TemperatureAvgF,TemperatureLowF,DewpointHighF,DewpointAvgF,DewpointLowF,HumidityHigh,HumidityAvg,HumidityLow,PressureMaxIn,PressureMinIn,WindSpeedMaxMPH,WindSpeedAvgMPH,GustSpeedMaxMPH,PrecipitationSumIn
2013-1-1,34.9,32.3,28.4,31.0,29.2,23.9,94,88,82,30.07,29.96,12,1,12,0.03
2013-1-2,30.8,24.2,17.3,24.2,18.0,14.7,90,78,57,30.27,30.04,12,2,12,0.07
2013-1-3,37.2,23.6,11.7,23.9,17.4,9.5,92,79,57,30.31,30.17,16,1,16,0.19
2013-1-4,33.1,29.7,27.6,24.4,23.1,21.5,81,76,67,30.28,30.18,18,3,18,0.00
2013-1-5,40.2,31.4,27.9,27.6,24.5,21.9,88,76,57,30.43,30.20,14,2,14,0.20
2013-1-6,39.3,35.2,30.6,32.8,29.8,27.2,94,81,69,30.22,30.04,11,1,11,0.12
2013-1-7,37.1,30.5,17.7,32.0,25.6,15.7,93,82,66,30.49,30.22,12,1,12,0.04
2013-1-8,49.4,26.3,16.1,33.2,22.3,14.2,95,86,51,30.47,30.36,8,0,9,0.04
2013-1-9,46.1,32.6,20.2,43.4,30.1,18.7,97,91,78,30.51,30.29,13,1,13,0.03
2013-1-10,47.8,35.1,24.7,34.5,30.1,23.4,97,84,45,30.65,30.41,4,0,7,0.01
2013-1-11,42.2,37.4,33.3,41.4,36.2,31.6,98,96,91,30.41,30.07,4,0,4,0.22
2013-1-12,56.4,41.4,35.3,50.2,40.1,35.0,99,96,78,30.16,30.05,3,0,3,0.01
2013-1-13,68.3,47.6,37.0,56.7,44.8,36.5,99,91,64,30.07,29.90,18,1,19,0.05
2013-1-14,52.6,42.2,34.5,52.3,37.6,30.5,99,84,69,30.35,29.92,27,2,27,0.08
2013-1-15,38.6,35.0,33.1,33.3,31.4,28.5,96,87,72,30.37,30.11,10,1,10,0.35
2013-1-16,38.0,35.4,33.3,36.3,33.8,31.0,98,94,81,30.12,29.91,10,1,14,0.29
2013-1-17,36.0,34.2,32.3,31.4,29.3,27.7,90,82,75,30.20,30.04,11,2,11,0.02
2013-1-18,34.0,28.2,21.6,28.0,17.7,10.0,86,65,46,30.53,30.16,25,4,25,0.00
2013-1-19,54.2,37.3,20.6,29.3,21.9,18.3,94,61,27,30.35,29.91,16,3,25,0.01
2013-1-20,47.7,39.3,25.9,32.4,21.5,13.3,65,50,32,30.12,29.83,31,6,33,0.00
2013-1-21,33.7,25.2,15.6,23.0,16.2,6.9,88,69,47,30.11,29.90,24,4,24,0.00
2013-1-22,15.6,11.5,8.1,8.9,3.1,-0.7,81,69,53,30.34,30.07,19,4,19,0.00
2013-1-23,17.7,13.2,7.6,13.0,4.3,0.2,89,68,51,30.39,30.13,16,2,16,0.00
2013-1-24,22.3,15.0,3.8,13.6,9.1,0.6,89,78,54,30.60,30.11,13,2,17,0.02
2013-1-25,23.6,14.7,4.9,20.2,11.1,2.1,90,86,74,30.60,30.10,13,0,13,0.00
2013-1-26,28.8,25.0,21.8,23.8,20.1,16.9,90,82,72,30.48,30.14,14,2,15,0.00
2013-1-27,38.7,24.4,6.6,25.6,17.8,4.0,92,77,48,30.61,30.41,5,0,5,0.29
2013-1-28,52.5,40.4,30.2,50.2,38.1,25.4,98,92,81,30.42,30.07,21,2,22,0.42
2013-1-29,67.5,50.5,39.8,56.2,47.4,38.9,99,90,63,30.10,29.88,15,1,16,0.02
2013-1-30,71.1,47.2,36.3,59.9,45.9,35.8,99,96,61,29.88,29.28,31,1,31,0.76
2013-1-31,50.0,30.7,24.5,47.7,23.4,12.4,93,74,58,29.90,29.25,34,7,34,0.11